Time;durP1;ratioP1;P1;durP2;ratioP2;P2;SDS_P1;SDS_P2;PMS_P1;PMS_P2;Temp;Humidity;BMP_temperature;BMP_pressure;BME280_temperature;BME280_humidity;BME280_pressure;Samples;Min_cycle;Max_cycle;Signal;HPM_P1;HPM_P2
2021/12/21 00:00:50;;;;;;;19.30;11.83;;;13.40;50.60;;;;;;5058685;28;20477;-86
2021/12/21 00:03:19;;;;;;;20.70;11.47;;;13.40;50.70;;;;;;5060165;28;20459;-88
2021/12/21 00:05:47;;;;;;;18.90;10.70;;;13.40;50.60;;;;;;5028188;28;20479;-86
2021/12/21 00:08:17;;;;;;;19.17;12.17;;;13.40;50.50;;;;;;5034832;28;20473;-86
2021/12/21 00:11:04;;;;;;;19.90;11.93;;;13.40;50.60;;;;;;5032054;28;20442;-86
2021/12/21 00:13:54;;;;;;;19.67;11.30;;;13.30;50.60;;;;;;5025637;28;20488;-86
2021/12/21 00:16:46;;;;;;;20.70;12.03;;;13.40;50.70;;;;;;5018204;28;20436;-86
2021/12/21 00:19:37;;;;;;;22.00;11.73;;;13.30;50.60;;;;;;5017373;28;20512;-86
2021/12/21 00:22:15;;;;;;;18.93;11.03;;;13.30;50.80;;;;;;5018628;28;20472;-87
2021/12/21 00:24:47;;;;;;;20.30;11.10;;;13.30;50.70;;;;;;5028170;28;20482;-86
2021/12/21 00:27:16;;;;;;;20.27;11.57;;;13.30;50.80;;;;;;5034925;28;20564;-86
2021/12/21 00:29:44;;;;;;;18.60;11.50;;;13.30;50.70;;;;;;5021187;28;20475;-86
2021/12/21 00:32:13;;;;;;;18.80;10.83;;;13.30;50.80;;;;;;5025510;28;20440;-86
2021/12/21 00:34:42;;;;;;;18.93;11.07;;;13.30;50.70;;;;;;5028956;28;20502;-86
2021/12/21 00:37:09;;;;;;;21.40;10.27;;;13.30;50.70;;;;;;5018691;28;20468;-86
2021/12/21 00:39:38;;;;;;;19.23;11.00;;;13.30;50.90;;;;;;5024368;28;20459;-85
2021/12/21 00:42:06;;;;;;;21.67;10.33;;;13.30;50.90;;;;;;5033623;28;20527;-86
2021/12/21 00:44:35;;;;;;;19.20;10.70;;;13.30;50.90;;;;;;5026655;28;20468;-86
2021/12/21 00:47:03;;;;;;;15.10;10.27;;;13.30;50.90;;;;;;5027353;28;20424;-86
2021/12/21 00:49:32;;;;;;;18.87;10.23;;;13.20;50.80;;;;;;5021479;28;20431;-85
2021/12/21 00:52:00;;;;;;;18.10;11.10;;;13.30;50.90;;;;;;5026360;28;20515;-86
2021/12/21 00:54:28;;;;;;;16.57;11.17;;;13.20;50.80;;;;;;5016349;28;20476;-86
2021/12/21 00:56:56;;;;;;;16.23;10.30;;;13.20;50.80;;;;;;5024403;28;20960;-86
2021/12/21 00:59:25;;;;;;;17.50;10.97;;;13.20;50.90;;;;;;5027055;28;20452;-85
2021/12/21 01:01:52;;;;;;;17.10;9.73;;;13.20;51.00;;;;;;5031855;28;20458;-86
2021/12/21 01:04:25;;;;;;;20.93;10.70;;;13.20;50.80;;;;;;5027286;28;20484;-86
2021/12/21 01:07:03;;;;;;;17.23;10.30;;;13.20;51.00;;;;;;5023051;28;20431;-85
2021/12/21 01:09:59;;;;;;;17.67;9.93;;;13.20;50.90;;;;;;5024458;28;20463;-85
2021/12/21 01:12:41;;;;;;;15.90;10.47;;;13.10;50.70;;;;;;5021659;28;20471;-84
2021/12/21 01:15:19;;;;;;;16.40;10.57;;;13.20;50.90;;;;;;5025211;28;20554;-85
2021/12/21 01:17:52;;;;;;;19.23;10.23;;;13.10;50.70;;;;;;5029380;28;20491;-85
2021/12/21 01:20:37;;;;;;;16.60;10.50;;;13.10;50.70;;;;;;5026414;28;20453;-85
2021/12/21 01:23:34;;;;;;;23.00;10.53;;;13.10;50.70;;;;;;5019124;28;20500;-85
2021/12/21 01:26:09;;;;;;;16.40;10.87;;;13.10;50.80;;;;;;5016389;28;20528;-85
2021/12/21 01:28:44;;;;;;;18.10;10.30;;;13.10;50.90;;;;;;5022308;28;20444;-85
2021/12/21 01:31:24;;;;;;;18.07;10.20;;;13.10;50.80;;;;;;5017928;28;20519;-85
2021/12/21 01:34:05;;;;;;;19.93;10.50;;;13.00;50.80;;;;;;5024311;28;21066;-85
2021/12/21 01:36:38;;;;;;;16.70;9.70;;;13.00;50.90;;;;;;5027395;28;20523;-84
2021/12/21 01:39:14;;;;;;;15.10;9.90;;;13.10;50.80;;;;;;5024914;28;20504;-85
2021/12/21 01:41:51;;;;;;;18.47;10.73;;;13.10;50.90;;;;;;5024277;28;20463;-85
2021/12/21 01:44:36;;;;;;;15.97;10.17;;;13.00;50.70;;;;;;5017827;28;20476;-85
2021/12/21 01:49:50;;;;;;;18.43;10.77;;;13.10;51.00;;;;;;5020270;28;20435;-85
2021/12/21 01:52:19;;;;;;;17.20;10.37;;;13.00;50.80;;;;;;5029159;28;20542;-85
2021/12/21 01:54:49;;;;;;;16.07;10.20;;;13.00;50.90;;;;;;5026762;28;20482;-85
2021/12/21 01:57:17;;;;;;;13.80;9.20;;;12.90;50.80;;;;;;5025106;28;20458;-85
2021/12/21 01:59:45;;;;;;;14.10;10.10;;;12.90;51.50;;;;;;5028639;28;20452;-85
2021/12/21 02:02:17;;;;;;;17.93;10.73;;;12.90;50.90;;;;;;5026362;28;20496;-85
2021/12/21 02:04:45;;;;;;;17.37;9.70;;;12.90;50.80;;;;;;5024541;28;20491;-85
2021/12/21 02:07:13;;;;;;;16.83;9.97;;;13.00;50.80;;;;;;5027068;28;20948;-85
2021/12/21 02:09:41;;;;;;;14.77;9.17;;;12.90;50.70;;;;;;5032601;28;20531;-85
2021/12/21 02:12:12;;;;;;;16.63;10.30;;;12.90;50.90;;;;;;5033364;28;20497;-85
2021/12/21 02:14:40;;;;;;;14.53;8.83;;;12.90;50.90;;;;;;5040571;28;20448;-85
2021/12/21 02:17:28;;;;;;;14.30;9.60;;;12.90;50.90;;;;;;5039093;28;20440;-85
2021/12/21 02:20:00;;;;;;;13.97;9.77;;;12.90;50.80;;;;;;5038244;28;20503;-85
2021/12/21 02:22:32;;;;;;;11.67;9.60;;;12.90;50.90;;;;;;5037198;28;20571;-85
2021/12/21 02:25:08;;;;;;;13.70;9.63;;;12.90;50.80;;;;;;5047011;28;20561;-85
2021/12/21 02:27:53;;;;;;;13.53;9.13;;;12.90;50.80;;;;;;5057936;28;20438;-85
2021/12/21 02:30:21;;;;;;;15.50;10.40;;;12.90;50.80;;;;;;5059050;28;20471;-85
2021/12/21 02:32:49;;;;;;;14.00;9.20;;;12.80;50.70;;;;;;5059780;28;20530;-84
2021/12/21 02:35:18;;;;;;;15.27;9.23;;;12.80;50.70;;;;;;5058893;28;20488;-85
2021/12/21 02:37:47;;;;;;;15.53;9.67;;;12.80;50.80;;;;;;5058967;28;20497;-85
2021/12/21 02:40:15;;;;;;;13.30;9.60;;;12.80;50.80;;;;;;5049557;28;20454;-85
2021/12/21 02:42:43;;;;;;;15.10;9.40;;;12.80;50.70;;;;;;5059506;28;20438;-85
2021/12/21 02:45:11;;;;;;;13.93;9.20;;;12.80;50.80;;;;;;5059221;28;20475;-85
2021/12/21 02:47:39;;;;;;;15.57;9.37;;;12.80;50.70;;;;;;5059332;28;20477;-85
2021/12/21 02:50:09;;;;;;;13.80;9.13;;;12.80;50.90;;;;;;5059651;28;20431;-84
2021/12/21 02:52:38;;;;;;;15.70;9.70;;;12.80;50.80;;;;;;5059332;28;20530;-85
2021/12/21 02:55:08;;;;;;;13.57;9.77;;;12.80;50.70;;;;;;5056766;28;20463;-85
2021/12/21 02:57:36;;;;;;;18.77;9.50;;;12.80;50.70;;;;;;5039731;28;20450;-85
2021/12/21 03:00:07;;;;;;;14.80;8.83;;;12.80;50.90;;;;;;5057558;28;20449;-85
2021/12/21 03:02:35;;;;;;;14.70;9.00;;;12.70;50.70;;;;;;5057508;28;20465;-85
2021/12/21 03:05:04;;;;;;;12.80;9.20;;;12.70;50.70;;;;;;5057645;28;20473;-85
2021/12/21 03:08:03;;;;;;;14.47;9.60;;;12.70;50.70;;;;;;5057753;28;20474;-85
2021/12/21 03:10:36;;;;;;;12.57;9.13;;;12.70;50.70;;;;;;5058383;28;20450;-85
2021/12/21 03:15:50;;;;;;;15.63;8.93;;;12.70;50.70;;;;;;5061317;28;20517;-85
2021/12/21 03:18:18;;;;;;;15.60;8.97;;;12.70;50.70;;;;;;5061342;28;20442;-85
2021/12/21 03:20:46;;;;;;;13.13;9.13;;;12.70;50.70;;;;;;5061355;28;20427;-85
2021/12/21 03:23:14;;;;;;;14.00;9.03;;;12.70;50.80;;;;;;5045543;28;20497;-84
2021/12/21 03:25:43;;;;;;;14.90;9.43;;;12.70;50.70;;;;;;5041025;28;20439;-85
2021/12/21 03:28:11;;;;;;;13.27;9.10;;;12.70;50.90;;;;;;5036374;28;20487;-85
2021/12/21 03:30:39;;;;;;;12.37;8.87;;;12.70;50.70;;;;;;5033882;28;20519;-84
2021/12/21 03:33:07;;;;;;;13.83;9.23;;;12.70;50.80;;;;;;5038091;28;20482;-85
2021/12/21 03:35:35;;;;;;;11.37;8.53;;;12.70;50.60;;;;;;5038373;28;20448;-84
2021/12/21 03:38:03;;;;;;;16.07;9.30;;;12.70;50.80;;;;;;5031197;28;20452;-85
2021/12/21 03:40:33;;;;;;;13.50;9.27;;;12.70;50.80;;;;;;5041215;28;20497;-85
2021/12/21 03:43:02;;;;;;;13.30;8.60;;;12.60;50.80;;;;;;5033066;28;20524;-85
2021/12/21 03:45:34;;;;;;;15.47;9.53;;;12.60;50.80;;;;;;5034748;28;20463;-84
2021/12/21 03:48:02;;;;;;;10.97;8.17;;;12.70;50.80;;;;;;5044343;28;20478;-84
2021/12/21 03:50:30;;;;;;;15.20;9.23;;;12.70;50.80;;;;;;5060350;28;20470;-85
2021/12/21 03:52:58;;;;;;;14.60;8.97;;;12.60;50.70;;;;;;5061381;28;20431;-85
2021/12/21 03:55:26;;;;;;;10.73;8.10;;;12.60;50.90;;;;;;5061034;28;20522;-85
2021/12/21 03:57:54;;;;;;;11.03;8.00;;;12.60;50.80;;;;;;5060516;28;20510;-85
2021/12/21 04:00:27;;;;;;;14.23;8.50;;;12.70;50.90;;;;;;5060915;28;20453;-85
2021/12/21 04:02:55;;;;;;;12.03;8.73;;;12.60;50.70;;;;;;5061933;28;20827;-85
2021/12/21 04:05:23;;;;;;;11.63;8.50;;;12.60;50.80;;;;;;5050283;28;20447;-84
2021/12/21 04:07:56;;;;;;;13.70;9.80;;;12.60;50.80;;;;;;5061766;28;20471;-85
2021/12/21 04:10:24;;;;;;;12.30;8.20;;;12.60;50.80;;;;;;5062385;28;20489;-85
2021/12/21 04:12:52;;;;;;;13.03;8.10;;;12.60;50.90;;;;;;5064148;28;20471;-85
2021/12/21 04:15:23;;;;;;;11.30;8.50;;;12.60;50.70;;;;;;5062163;28;20439;-85
2021/12/21 04:17:53;;;;;;;13.00;9.00;;;12.50;50.80;;;;;;5062204;28;20946;-84
2021/12/21 04:20:21;;;;;;;13.27;8.10;;;12.50;50.70;;;;;;5062656;28;20465;-84
2021/12/21 04:22:49;;;;;;;14.77;8.60;;;12.50;50.80;;;;;;5051678;28;20476;-85
2021/12/21 04:25:17;;;;;;;11.63;7.40;;;12.50;50.80;;;;;;5060935;28;20462;-85
2021/12/21 04:27:45;;;;;;;10.83;7.60;;;12.50;50.90;;;;;;5062027;28;20466;-85
2021/12/21 04:30:13;;;;;;;13.50;8.67;;;12.60;50.90;;;;;;5062043;28;20458;-84
2021/12/21 04:32:41;;;;;;;14.17;8.80;;;12.50;50.90;;;;;;5061575;28;20829;-85
2021/12/21 04:35:11;;;;;;;10.93;8.30;;;12.60;50.90;;;;;;5061439;28;20455;-85
2021/12/21 04:37:44;;;;;;;13.47;7.90;;;12.60;50.80;;;;;;5061940;28;20458;-85
2021/12/21 04:40:16;;;;;;;10.43;7.97;;;12.50;51.00;;;;;;5046517;28;20474;-85
2021/12/21 04:42:44;;;;;;;12.20;8.50;;;12.50;51.00;;;;;;5061506;28;20447;-85
2021/12/21 04:45:13;;;;;;;12.17;7.97;;;12.50;50.90;;;;;;5059529;28;20554;-85
2021/12/21 04:47:41;;;;;;;12.47;8.30;;;12.50;50.70;;;;;;5059498;28;20494;-85
2021/12/21 04:50:11;;;;;;;12.10;7.90;;;12.50;50.90;;;;;;5059665;28;20473;-85
2021/12/21 04:52:38;;;;;;;12.17;7.80;;;12.60;51.00;;;;;;5059758;28;20481;-85
2021/12/21 04:55:07;;;;;;;12.13;7.90;;;12.50;50.80;;;;;;5061235;28;20474;-84
2021/12/21 04:57:35;;;;;;;10.60;7.40;;;12.50;50.90;;;;;;5053758;28;20463;-85
2021/12/21 05:00:04;;;;;;;10.93;7.77;;;12.50;50.90;;;;;;5044497;28;20451;-85
2021/12/21 05:02:33;;;;;;;11.90;8.00;;;12.50;50.80;;;;;;5035359;28;20500;-84
2021/12/21 05:05:01;;;;;;;12.53;7.33;;;12.50;51.00;;;;;;5049589;28;20500;-84
2021/12/21 05:07:33;;;;;;;12.80;8.17;;;12.50;50.90;;;;;;5043906;28;20514;-85
2021/12/21 05:10:02;;;;;;;11.67;7.97;;;12.50;50.90;;;;;;5058520;28;20474;-85
2021/12/21 05:12:30;;;;;;;11.37;7.90;;;12.40;51.00;;;;;;5059335;28;20434;-85
2021/12/21 05:14:58;;;;;;;13.17;7.50;;;12.40;51.00;;;;;;5058662;28;20458;-84
2021/12/21 05:17:26;;;;;;;10.37;7.40;;;12.40;50.90;;;;;;5038041;28;20530;-87
2021/12/21 05:19:54;;;;;;;11.40;7.67;;;12.40;51.00;;;;;;5058497;28;20443;-87
2021/12/21 05:22:24;;;;;;;10.33;7.90;;;12.40;50.90;;;;;;5058810;28;20492;-84
2021/12/21 05:24:54;;;;;;;11.37;7.57;;;12.40;51.00;;;;;;5059430;28;20497;-84
2021/12/21 05:27:23;;;;;;;10.50;7.97;;;12.40;50.90;;;;;;5058430;28;20565;-87
2021/12/21 05:29:51;;;;;;;13.13;8.20;;;12.40;51.20;;;;;;5058376;28;20474;-84
2021/12/21 05:32:19;;;;;;;9.93;7.40;;;12.30;51.10;;;;;;5059999;28;20450;-85
2021/12/21 05:34:47;;;;;;;9.87;7.37;;;12.30;51.00;;;;;;5050124;28;20490;-85
2021/12/21 05:37:14;;;;;;;10.80;7.77;;;12.40;51.20;;;;;;5060636;28;20449;-85
2021/12/21 05:39:54;;;;;;;10.80;7.77;;;12.30;51.00;;;;;;5060456;28;20449;-85
2021/12/21 05:42:23;;;;;;;11.27;7.30;;;12.30;51.00;;;;;;5060045;28;20466;-84
2021/12/21 05:44:51;;;;;;;9.90;7.50;;;12.30;51.00;;;;;;5059994;28;20474;-85
2021/12/21 05:47:19;;;;;;;12.10;8.03;;;12.30;51.00;;;;;;5058746;28;20474;-84
2021/12/21 05:49:47;;;;;;;10.67;7.60;;;12.30;51.00;;;;;;5057043;28;20513;-85
2021/12/21 05:52:15;;;;;;;9.30;6.87;;;12.30;51.60;;;;;;5037763;28;20554;-84
2021/12/21 05:54:43;;;;;;;11.07;7.20;;;12.30;51.10;;;;;;5056857;28;20548;-85
2021/12/21 05:57:11;;;;;;;11.40;7.50;;;12.30;51.10;;;;;;5056562;28;20434;-86
2021/12/21 05:59:40;;;;;;;11.23;7.70;;;12.30;51.10;;;;;;5056389;28;20438;-85
2021/12/21 06:02:08;;;;;;;10.67;7.70;;;12.30;51.00;;;;;;5056310;28;20435;-85
2021/12/21 06:04:36;;;;;;;9.47;7.07;;;12.30;51.10;;;;;;5056033;28;20973;-85
2021/12/21 06:07:05;;;;;;;11.10;6.97;;;12.30;51.10;;;;;;5056252;28;20462;-85
2021/12/21 06:09:33;;;;;;;12.17;7.60;;;12.20;51.10;;;;;;5041317;28;20451;-84
2021/12/21 06:12:09;;;;;;;9.83;7.40;;;12.30;51.10;;;;;;5057638;28;20458;-85
2021/12/21 06:14:56;;;;;;;10.43;7.63;;;12.30;51.10;;;;;;5056597;28;20489;-84
2021/12/21 06:23:18;;;;;;;12.87;7.60;;;12.20;50.90;;;;;;5056214;28;20517;-86
2021/12/21 06:25:53;;;;;;;10.83;6.90;;;12.20;51.20;;;;;;5055899;28;20542;-85
2021/12/21 06:28:21;;;;;;;9.73;6.83;;;12.20;51.20;;;;;;5044518;28;20470;-86
2021/12/21 06:30:50;;;;;;;9.63;6.73;;;12.20;51.00;;;;;;5055835;28;20541;-86
2021/12/21 06:33:19;;;;;;;11.50;7.10;;;12.20;51.00;;;;;;5055707;28;20516;-85
2021/12/21 06:35:47;;;;;;;9.73;7.27;;;12.10;50.90;;;;;;5056208;28;20481;-85
2021/12/21 06:38:15;;;;;;;8.90;6.70;;;12.10;51.00;;;;;;5055941;28;20462;-86
2021/12/21 06:40:43;;;;;;;9.83;7.20;;;12.10;50.90;;;;;;5056594;28;20496;-85
2021/12/21 06:43:14;;;;;;;11.50;7.47;;;12.10;50.80;;;;;;5056824;28;20500;-85
2021/12/21 06:45:51;;;;;;;10.00;6.60;;;12.00;50.80;;;;;;5037859;28;20472;-85
2021/12/21 06:51:16;;;;;;;10.50;7.00;;;12.00;50.90;;;;;;5038844;28;20476;-85
2021/12/21 06:53:45;;;;;;;12.03;7.50;;;12.00;50.80;;;;;;5059806;28;20454;-85
2021/12/21 06:56:13;;;;;;;8.70;6.63;;;12.00;50.70;;;;;;5059514;28;20448;-85
2021/12/21 06:58:41;;;;;;;12.13;7.00;;;12.00;50.80;;;;;;5060403;28;20433;-85
2021/12/21 07:01:09;;;;;;;10.53;7.33;;;12.00;50.70;;;;;;5039394;28;20533;-85
2021/12/21 07:03:39;;;;;;;9.67;7.00;;;12.00;50.80;;;;;;5060433;28;20477;-86
2021/12/21 07:06:07;;;;;;;10.80;7.40;;;12.00;51.20;;;;;;5060296;28;20435;-86
2021/12/21 07:08:45;;;;;;;8.83;6.53;;;12.00;50.70;;;;;;5059397;28;20517;-87
2021/12/21 07:11:19;;;;;;;7.80;6.00;;;12.00;50.60;;;;;;5059985;28;20469;-85
2021/12/21 07:19:20;;;;;;;10.30;6.50;;;11.90;50.40;;;;;;5040904;28;20489;-85
2021/12/21 07:21:47;;;;;;;11.60;7.00;;;11.90;50.50;;;;;;5059613;28;20506;-85
2021/12/21 07:24:15;;;;;;;12.67;7.43;;;11.90;50.60;;;;;;5059416;28;20461;-85
2021/12/21 07:26:44;;;;;;;11.83;6.73;;;11.90;50.60;;;;;;5059869;28;20506;-85
2021/12/21 07:29:12;;;;;;;8.30;6.50;;;11.90;50.70;;;;;;5058810;28;20981;-85
2021/12/21 07:31:40;;;;;;;14.10;7.27;;;11.90;50.40;;;;;;5059751;28;20465;-86
2021/12/21 07:34:08;;;;;;;8.80;6.20;;;11.90;50.60;;;;;;5059689;28;20462;-87
2021/12/21 07:36:42;;;;;;;9.23;6.80;;;11.90;50.50;;;;;;5043165;28;20537;-86
2021/12/21 07:39:11;;;;;;;9.13;6.40;;;11.90;50.40;;;;;;5019635;28;20460;-87
2021/12/21 07:41:40;;;;;;;10.93;7.00;;;11.90;50.60;;;;;;5019148;28;20452;-86
2021/12/21 07:44:08;;;;;;;9.97;7.13;;;11.90;50.50;;;;;;5018979;28;20444;-86
2021/12/21 07:46:36;;;;;;;8.60;6.60;;;11.90;50.40;;;;;;5019460;28;20517;-86
2021/12/21 07:49:05;;;;;;;10.17;6.50;;;11.80;50.30;;;;;;5019504;28;20506;-86
2021/12/21 07:51:33;;;;;;;11.43;6.90;;;11.80;50.40;;;;;;5019854;28;21007;-87
2021/12/21 07:54:03;;;;;;;9.83;6.57;;;11.80;50.40;;;;;;5045432;28;20549;-86
2021/12/21 07:56:31;;;;;;;10.27;6.47;;;11.80;50.20;;;;;;5058604;28;20535;-88
2021/12/21 07:58:59;;;;;;;10.60;6.77;;;11.80;50.40;;;;;;5057774;28;20457;-87
2021/12/21 08:01:28;;;;;;;9.20;6.60;;;11.80;50.30;;;;;;5058320;28;20508;-87
2021/12/21 08:03:57;;;;;;;10.20;6.63;;;11.80;50.30;;;;;;5058637;28;20451;-87
2021/12/21 08:06:28;;;;;;;9.17;6.77;;;11.80;50.30;;;;;;5058742;28;20440;-88
2021/12/21 08:08:57;;;;;;;9.57;6.30;;;11.90;50.20;;;;;;5058347;28;20482;-86
2021/12/21 08:12:11;;;;;;;10.23;7.00;;;11.80;50.10;;;;;;5043073;28;20480;-87
2021/12/21 08:14:18;;;;;;;11.07;7.13;;;11.80;50.20;;;;;;5058193;28;20451;-86
2021/12/21 08:16:45;;;;;;;9.37;7.10;;;11.90;50.30;;;;;;5057829;28;20451;-86
2021/12/21 08:19:13;;;;;;;9.90;7.17;;;11.90;50.20;;;;;;5057855;28;20530;-87
2021/12/21 08:21:41;;;;;;;12.53;7.90;;;11.90;50.10;;;;;;5058182;28;20521;-86
2021/12/21 08:24:09;;;;;;;10.43;6.70;;;11.90;50.30;;;;;;5060390;28;20549;-86
2021/12/21 08:26:39;;;;;;;11.50;6.90;;;11.90;50.10;;;;;;5062459;28;20478;-86
2021/12/21 08:29:07;;;;;;;9.53;6.90;;;12.00;50.20;;;;;;5055275;28;20474;-86
2021/12/21 08:31:35;;;;;;;11.03;6.87;;;12.00;50.10;;;;;;5054807;28;20427;-86
2021/12/21 08:34:03;;;;;;;8.00;6.50;;;12.00;50.10;;;;;;5062087;28;20458;-86
2021/12/21 08:36:33;;;;;;;12.23;7.73;;;12.00;50.10;;;;;;5062970;28;20423;-85
2021/12/21 08:39:00;;;;;;;10.23;6.90;;;12.00;50.20;;;;;;5068875;28;20426;-85
2021/12/21 08:41:29;;;;;;;8.70;6.53;;;12.10;50.20;;;;;;5067516;28;20442;-86
2021/12/21 08:44:00;;;;;;;9.17;7.00;;;12.20;50.40;;;;;;5064838;28;20467;-85
2021/12/21 08:46:29;;;;;;;14.07;7.63;;;12.20;50.30;;;;;;5036652;28;20467;-87
2021/12/21 08:48:56;;;;;;;10.63;6.90;;;12.30;50.40;;;;;;5032204;28;20582;-86
2021/12/21 08:51:24;;;;;;;9.73;6.57;;;12.30;50.10;;;;;;5028176;28;20467;-86
2021/12/21 08:53:52;;;;;;;13.27;7.70;;;12.40;50.30;;;;;;5021049;28;20507;-87
2021/12/21 08:56:20;;;;;;;9.40;7.03;;;12.50;50.50;;;;;;5028257;28;20460;-86
2021/12/21 08:58:48;;;;;;;8.10;6.40;;;12.60;50.40;;;;;;5029292;28;20470;-87
2021/12/21 09:01:18;;;;;;;9.57;7.13;;;12.70;50.30;;;;;;5028720;28;20427;-85
2021/12/21 09:03:47;;;;;;;8.97;7.20;;;12.80;50.50;;;;;;5022771;28;20484;-86
2021/12/21 09:06:15;;;;;;;10.03;7.10;;;12.80;50.50;;;;;;5051034;28;20442;-87
2021/12/21 09:08:43;;;;;;;9.97;6.80;;;12.90;50.60;;;;;;5057256;28;20972;-86
2021/12/21 09:11:11;;;;;;;10.07;6.90;;;13.00;50.60;;;;;;5057302;28;20473;-86
2021/12/21 09:13:39;;;;;;;9.60;7.50;;;13.00;50.60;;;;;;5057418;28;20498;-86
2021/12/21 09:16:07;;;;;;;10.83;7.20;;;13.10;50.80;;;;;;5042706;28;20428;-86
2021/12/21 09:18:36;;;;;;;10.13;7.13;;;13.10;50.80;;;;;;5025335;28;20472;-88
2021/12/21 09:21:05;;;;;;;9.90;6.63;;;13.20;50.90;;;;;;5030384;28;20451;-87
2021/12/21 09:23:33;;;;;;;8.13;6.90;;;13.30;50.90;;;;;;5026328;28;20453;-86
2021/12/21 09:26:01;;;;;;;10.30;7.30;;;13.40;51.00;;;;;;5017117;28;20447;-86
2021/12/21 09:28:29;;;;;;;8.50;6.03;;;13.40;50.90;;;;;;5029091;28;20517;-87
2021/12/21 09:30:57;;;;;;;9.87;7.23;;;13.40;50.90;;;;;;5029166;28;21079;-86
2021/12/21 09:33:25;;;;;;;8.83;7.00;;;13.50;51.10;;;;;;5017013;28;20527;-87
2021/12/21 09:35:55;;;;;;;12.30;7.10;;;13.50;51.20;;;;;;5016530;28;20421;-86
2021/12/21 09:38:23;;;;;;;10.20;7.47;;;13.60;51.30;;;;;;5025521;28;20442;-86
2021/12/21 09:40:54;;;;;;;9.43;6.50;;;13.60;51.20;;;;;;5016636;28;20512;-85
2021/12/21 09:43:22;;;;;;;9.53;6.87;;;13.60;51.30;;;;;;5025816;28;20817;-86
2021/12/21 09:45:50;;;;;;;10.87;7.40;;;13.70;51.40;;;;;;5027804;28;20546;-86
2021/12/21 09:48:18;;;;;;;9.77;7.40;;;13.70;51.20;;;;;;5026170;28;20499;-86
2021/12/21 09:50:46;;;;;;;9.10;7.00;;;13.80;51.40;;;;;;5027046;28;20508;-86
2021/12/21 09:53:16;;;;;;;8.73;6.90;;;13.90;51.40;;;;;;5026598;28;20466;-86
2021/12/21 09:55:47;;;;;;;9.87;7.30;;;13.90;51.50;;;;;;5033377;28;20475;-87
2021/12/21 09:58:15;;;;;;;10.17;7.30;;;13.90;51.40;;;;;;5029446;28;20543;-86
2021/12/21 10:00:43;;;;;;;15.20;7.57;;;13.90;51.40;;;;;;5026523;28;20424;-86
2021/12/21 10:03:11;;;;;;;10.80;7.10;;;14.00;51.50;;;;;;5027316;28;20435;-86
2021/12/21 10:05:41;;;;;;;8.40;7.07;;;14.00;51.50;;;;;;5027201;28;20435;-86
2021/12/21 10:08:10;;;;;;;9.30;6.60;;;14.00;51.50;;;;;;5027645;28;20429;-86
2021/12/21 10:10:41;;;;;;;8.93;6.60;;;14.10;51.50;;;;;;5025393;28;20507;-87
2021/12/21 10:13:13;;;;;;;9.50;6.63;;;14.10;51.60;;;;;;5034215;28;20482;-86
2021/12/21 10:15:43;;;;;;;10.43;6.57;;;14.20;51.80;;;;;;5026317;28;20433;-88
2021/12/21 10:18:11;;;;;;;10.03;7.17;;;14.20;51.70;;;;;;5024327;28;20482;-87
2021/12/21 10:20:41;;;;;;;10.17;6.90;;;14.30;51.90;;;;;;5027855;28;20439;-87
2021/12/21 10:23:11;;;;;;;10.73;7.27;;;14.40;51.80;;;;;;5027109;28;20427;-88
2021/12/21 10:25:48;;;;;;;12.30;7.00;;;14.40;51.80;;;;;;5028531;28;20429;-86
2021/12/21 10:28:26;;;;;;;8.63;6.43;;;14.50;51.90;;;;;;5030298;28;20527;-85
2021/12/21 10:30:55;;;;;;;10.80;6.80;;;14.50;51.80;;;;;;5042890;28;20470;-84
2021/12/21 10:33:24;;;;;;;12.27;6.97;;;14.60;51.90;;;;;;5057953;28;20494;-85
2021/12/21 10:35:53;;;;;;;10.40;7.10;;;14.50;51.80;;;;;;5059473;28;20435;-85
2021/12/21 10:38:25;;;;;;;11.10;6.77;;;14.60;51.90;;;;;;5057499;28;20439;-86
2021/12/21 10:40:55;;;;;;;10.97;6.40;;;14.70;51.90;;;;;;5059094;28;20443;-85
2021/12/21 10:43:26;;;;;;;8.87;6.93;;;14.80;52.00;;;;;;5060064;28;20529;-86
2021/12/21 10:45:55;;;;;;;10.40;7.07;;;14.90;52.00;;;;;;5059792;28;20541;-85
2021/12/21 10:48:23;;;;;;;10.33;7.47;;;14.90;52.00;;;;;;5038399;28;20447;-85
2021/12/21 10:50:52;;;;;;;11.07;7.10;;;15.10;52.20;;;;;;5058634;28;20498;-86
2021/12/21 10:53:21;;;;;;;12.37;7.20;;;15.30;52.60;;;;;;5059882;28;20467;-85
2021/12/21 10:56:00;;;;;;;11.20;7.10;;;15.50;52.60;;;;;;5058600;28;20922;-87
2021/12/21 10:58:29;;;;;;;12.60;6.80;;;15.80;52.80;;;;;;5058614;28;20457;-85
2021/12/21 11:01:00;;;;;;;10.33;6.90;;;16.10;52.90;;;;;;5057517;28;20477;-87
2021/12/21 11:03:33;;;;;;;10.37;6.80;;;16.30;52.80;;;;;;5046443;28;20472;-85
2021/12/21 11:06:12;;;;;;;7.70;6.10;;;16.50;53.00;;;;;;5057085;28;20475;-85
2021/12/21 11:08:41;;;;;;;10.57;7.20;;;16.80;53.20;;;;;;5057658;28;20481;-86
2021/12/21 11:11:25;;;;;;;8.33;6.50;;;17.00;53.40;;;;;;5051405;28;20471;-85
2021/12/21 11:14:08;;;;;;;10.13;6.80;;;17.20;53.60;;;;;;5033843;28;20451;-86
2021/12/21 11:16:41;;;;;;;10.20;7.27;;;17.50;53.90;;;;;;5030655;28;20478;-85
2021/12/21 11:19:09;;;;;;;10.73;7.17;;;17.70;54.10;;;;;;5024856;28;20530;-86
2021/12/21 11:21:37;;;;;;;9.13;6.67;;;17.90;54.20;;;;;;5032843;28;20444;-85
2021/12/21 11:24:06;;;;;;;11.23;7.40;;;18.10;54.30;;;;;;5025892;28;20465;-85
2021/12/21 11:26:36;;;;;;;9.07;6.50;;;18.30;54.50;;;;;;5027274;28;20444;-85
2021/12/21 11:29:05;;;;;;;7.20;6.23;;;18.50;54.70;;;;;;5026798;28;20463;-85
2021/12/21 11:31:35;;;;;;;19.97;10.77;;;18.60;54.70;;;;;;5036243;28;20502;-85
2021/12/21 11:34:04;;;;;;;22.97;13.47;;;17.40;46.00;;;;;;5035681;28;20491;-85
2021/12/21 11:39:18;;;;;;;27.43;13.00;;;13.10;42.00;;;;;;5041343;28;20442;-86
2021/12/21 11:41:48;;;;;;;26.23;12.97;;;12.30;46.90;;;;;;5052405;28;20426;-85
2021/12/21 11:44:21;;;;;;;29.20;15.23;;;12.30;46.50;;;;;;5059156;28;20493;-85
2021/12/21 11:46:53;;;;;;;28.07;14.80;;;11.10;42.40;;;;;;5042546;28;20449;-85
2021/12/21 11:49:31;;;;;;;29.07;13.70;;;10.50;49.50;;;;;;5041351;28;20435;-85
2021/12/21 11:52:07;;;;;;;33.17;14.40;;;11.30;49.30;;;;;;5041104;28;20547;-85
2021/12/21 11:54:43;;;;;;;30.87;14.53;;;9.20;49.60;;;;;;5033582;28;20498;-84
2021/12/21 11:57:12;;;;;;;25.13;13.80;;;9.20;51.30;;;;;;5046966;28;20461;-85
2021/12/21 11:59:40;;;;;;;28.67;14.30;;;9.40;50.40;;;;;;5060842;28;20474;-85
2021/12/21 12:02:08;;;;;;;33.73;14.10;;;8.30;48.80;;;;;;5061276;28;20499;-85
2021/12/21 12:04:36;;;;;;;31.43;14.50;;;7.80;51.10;;;;;;5060488;28;20545;-85
2021/12/21 12:07:15;;;;;;;35.07;14.77;;;7.60;52.20;;;;;;5060354;28;20469;-85
2021/12/21 12:09:43;;;;;;;28.07;14.50;;;6.90;55.30;;;;;;5061180;28;20953;-85
2021/12/21 12:12:14;;;;;;;32.00;15.70;;;6.50;54.20;;;;;;5060761;28;20513;-84
2021/12/21 12:14:42;;;;;;;27.40;13.80;;;6.80;55.70;;;;;;5023107;28;20571;-85
2021/12/21 12:17:12;;;;;;;30.80;13.17;;;7.50;55.20;;;;;;5061700;28;20459;-84
2021/12/21 12:19:43;;;;;;;22.47;12.00;;;8.30;54.70;;;;;;5047760;28;20490;-82
2021/12/21 12:22:14;;;;;;;19.60;11.43;;;9.70;59.00;;;;;;5039789;28;20490;-82
2021/12/21 12:24:43;;;;;;;21.10;11.10;;;11.70;56.10;;;;;;5040069;28;20470;-83
2021/12/21 12:27:14;;;;;;;18.03;11.40;;;13.20;53.20;;;;;;5039614;28;20471;-83
2021/12/21 12:29:44;;;;;;;19.33;9.60;;;14.30;50.40;;;;;;5040476;28;20430;-83
2021/12/21 12:32:12;;;;;;;19.03;10.00;;;15.20;48.40;;;;;;5020523;28;20489;-82
2021/12/21 12:34:42;;;;;;;16.97;9.07;;;15.90;47.00;;;;;;5053326;28;20458;-83
2021/12/21 12:37:18;;;;;;;16.17;9.40;;;16.40;45.70;;;;;;5059185;28;20451;-83
2021/12/21 12:39:47;;;;;;;14.27;9.20;;;16.80;44.60;;;;;;5059496;28;20447;-83
2021/12/21 12:42:19;;;;;;;13.90;8.90;;;17.20;43.90;;;;;;5059485;28;20516;-83
2021/12/21 12:44:50;;;;;;;14.50;8.47;;;17.40;43.50;;;;;;5059273;28;20450;-83
2021/12/21 12:47:18;;;;;;;19.03;8.97;;;17.70;43.20;;;;;;5053384;28;20466;-83
2021/12/21 12:49:51;;;;;;;13.03;8.63;;;17.80;42.60;;;;;;5037946;28;20438;-81
2021/12/21 12:52:20;;;;;;;12.70;7.53;;;18.20;42.80;;;;;;5058829;28;20462;-82
2021/12/21 12:54:51;;;;;;;13.00;8.10;;;18.40;42.40;;;;;;5059487;28;20455;-84
2021/12/21 12:57:34;;;;;;;13.77;7.90;;;18.70;42.40;;;;;;5059827;28;20466;-82
2021/12/21 13:00:12;;;;;;;10.87;7.20;;;19.00;42.20;;;;;;5041162;28;20440;-82
2021/12/21 13:02:50;;;;;;;11.70;7.50;;;19.20;42.10;;;;;;5036012;28;20411;-83
2021/12/21 13:05:18;;;;;;;10.33;6.60;;;19.40;41.90;;;;;;5043286;28;20546;-83
2021/12/21 13:07:47;;;;;;;9.60;6.27;;;19.70;41.80;;;;;;5047822;28;20458;-83
2021/12/21 13:10:16;;;;;;;11.50;7.03;;;19.80;41.50;;;;;;5055283;28;20504;-83
2021/12/21 13:12:45;;;;;;;10.03;6.30;;;19.90;41.20;;;;;;5057820;28;20463;-82
2021/12/21 13:15:13;;;;;;;10.23;6.40;;;19.80;41.00;;;;;;5055689;28;20474;-83
2021/12/21 13:17:43;;;;;;;11.03;6.73;;;19.60;41.10;;;;;;5058100;28;20435;-83